sensor_id;sensor_type;location;lat;lon;timestamp;temperature;humidity
19007;DHT22;9636;47.382;8.480;2023-05-10T00:01:20;20.00;99.90
19007;DHT22;9636;47.382;8.480;2023-05-10T00:03:46;20.00;99.90
19007;DHT22;9636;47.382;8.480;2023-05-10T00:06:13;20.00;99.90
19007;DHT22;9636;47.382;8.480;2023-05-10T00:08:41;20.00;99.90
19007;DHT22;9636;47.382;8.480;2023-05-10T00:11:08;19.90;99.90
19007;DHT22;9636;47.382;8.480;2023-05-10T00:13:35;19.90;99.90
19007;DHT22;9636;47.382;8.480;2023-05-10T00:16:02;19.90;99.90
19007;DHT22;9636;47.382;8.480;2023-05-10T00:18:28;19.90;99.90
19007;DHT22;9636;47.382;8.480;2023-05-10T00:20:55;19.90;99.90
19007;DHT22;9636;47.382;8.480;2023-05-10T00:23:22;19.90;99.90
19007;DHT22;9636;47.382;8.480;2023-05-10T00:25:50;19.90;99.90
19007;DHT22;9636;47.382;8.480;2023-05-10T00:28:17;19.80;99.90
19007;DHT22;9636;47.382;8.480;2023-05-10T00:30:43;19.80;99.90
19007;DHT22;9636;47.382;8.480;2023-05-10T00:33:10;19.80;99.90
19007;DHT22;9636;47.382;8.480;2023-05-10T00:35:38;19.80;99.90
19007;DHT22;9636;47.382;8.480;2023-05-10T00:38:04;19.80;99.90
19007;DHT22;9636;47.382;8.480;2023-05-10T00:40:31;19.80;99.90
19007;DHT22;9636;47.382;8.480;2023-05-10T00:42:59;19.70;99.90
19007;DHT22;9636;47.382;8.480;2023-05-10T00:45:26;19.70;99.90
19007;DHT22;9636;47.382;8.480;2023-05-10T00:47:53;19.70;99.90
19007;DHT22;9636;47.382;8.480;2023-05-10T00:50:21;19.70;99.90
19007;DHT22;9636;47.382;8.480;2023-05-10T00:52:48;19.70;99.90
19007;DHT22;9636;47.382;8.480;2023-05-10T00:55:15;19.70;99.90
19007;DHT22;9636;47.382;8.480;2023-05-10T00:57:42;19.70;99.90
19007;DHT22;9636;47.382;8.480;2023-05-10T01:00:12;19.60;99.90
19007;DHT22;9636;47.382;8.480;2023-05-10T01:02:43;19.60;99.90
19007;DHT22;9636;47.382;8.480;2023-05-10T01:05:10;19.60;99.90
19007;DHT22;9636;47.382;8.480;2023-05-10T01:07:37;19.60;99.90
19007;DHT22;9636;47.382;8.480;2023-05-10T01:10:05;19.60;99.90
19007;DHT22;9636;47.382;8.480;2023-05-10T01:12:32;19.60;99.90
19007;DHT22;9636;47.382;8.480;2023-05-10T01:15:00;19.60;99.90
19007;DHT22;9636;47.382;8.480;2023-05-10T01:17:29;19.50;99.90
19007;DHT22;9636;47.382;8.480;2023-05-10T01:19:57;19.50;99.90
19007;DHT22;9636;47.382;8.480;2023-05-10T01:22:40;19.50;99.90
19007;DHT22;9636;47.382;8.480;2023-05-10T01:25:27;19.50;99.90
19007;DHT22;9636;47.382;8.480;2023-05-10T01:28:19;19.50;99.90
19007;DHT22;9636;47.382;8.480;2023-05-10T01:31:21;19.50;99.90
19007;DHT22;9636;47.382;8.480;2023-05-10T01:33:55;19.40;99.90
19007;DHT22;9636;47.382;8.480;2023-05-10T01:36:31;19.40;99.90
19007;DHT22;9636;47.382;8.480;2023-05-10T01:39:02;19.40;99.90
19007;DHT22;9636;47.382;8.480;2023-05-10T01:41:39;19.40;99.90
19007;DHT22;9636;47.382;8.480;2023-05-10T01:44:17;19.40;99.90
19007;DHT22;9636;47.382;8.480;2023-05-10T01:46:48;19.40;99.90
19007;DHT22;9636;47.382;8.480;2023-05-10T01:49:23;19.30;99.90
19007;DHT22;9636;47.382;8.480;2023-05-10T01:51:52;19.30;99.90
19007;DHT22;9636;47.382;8.480;2023-05-10T01:54:21;19.30;99.90
19007;DHT22;9636;47.382;8.480;2023-05-10T01:56:55;19.30;99.90
19007;DHT22;9636;47.382;8.480;2023-05-10T01:59:26;19.30;99.90
19007;DHT22;9636;47.382;8.480;2023-05-10T02:01:55;19.30;99.90
19007;DHT22;9636;47.382;8.480;2023-05-10T02:04:25;19.20;99.90
19007;DHT22;9636;47.382;8.480;2023-05-10T02:06:54;19.30;99.90
19007;DHT22;9636;47.382;8.480;2023-05-10T02:09:22;19.20;99.90
19007;DHT22;9636;47.382;8.480;2023-05-10T02:11:50;19.20;99.90
19007;DHT22;9636;47.382;8.480;2023-05-10T02:14:18;19.20;99.90
19007;DHT22;9636;47.382;8.480;2023-05-10T02:16:46;19.20;99.90
19007;DHT22;9636;47.382;8.480;2023-05-10T02:19:14;19.20;99.90
19007;DHT22;9636;47.382;8.480;2023-05-10T02:21:43;19.20;99.90
19007;DHT22;9636;47.382;8.480;2023-05-10T02:24:11;19.20;99.90
19007;DHT22;9636;47.382;8.480;2023-05-10T02:26:38;19.20;99.90
19007;DHT22;9636;47.382;8.480;2023-05-10T02:29:06;19.20;99.90
19007;DHT22;9636;47.382;8.480;2023-05-10T02:31:34;19.10;99.90
19007;DHT22;9636;47.382;8.480;2023-05-10T02:34:04;19.10;99.90
19007;DHT22;9636;47.382;8.480;2023-05-10T02:36:34;19.10;99.90
19007;DHT22;9636;47.382;8.480;2023-05-10T02:39:02;19.10;99.90
19007;DHT22;9636;47.382;8.480;2023-05-10T02:41:32;19.00;99.90
19007;DHT22;9636;47.382;8.480;2023-05-10T02:43:59;19.10;99.90
19007;DHT22;9636;47.382;8.480;2023-05-10T02:46:28;19.00;99.90
19007;DHT22;9636;47.382;8.480;2023-05-10T02:48:55;19.00;99.90
19007;DHT22;9636;47.382;8.480;2023-05-10T02:51:25;19.00;99.90
19007;DHT22;9636;47.382;8.480;2023-05-10T02:53:55;19.00;99.90
19007;DHT22;9636;47.382;8.480;2023-05-10T02:56:28;19.00;99.90
19007;DHT22;9636;47.382;8.480;2023-05-10T02:58:57;19.00;99.90
19007;DHT22;9636;47.382;8.480;2023-05-10T03:01:24;18.90;99.90
19007;DHT22;9636;47.382;8.480;2023-05-10T03:03:51;18.90;99.90
19007;DHT22;9636;47.382;8.480;2023-05-10T03:06:17;18.90;99.90
19007;DHT22;9636;47.382;8.480;2023-05-10T03:08:45;18.90;99.90
19007;DHT22;9636;47.382;8.480;2023-05-10T03:11:28;18.90;99.90
19007;DHT22;9636;47.382;8.480;2023-05-10T03:14:08;18.90;99.90
19007;DHT22;9636;47.382;8.480;2023-05-10T03:16:42;18.90;99.90
19007;DHT22;9636;47.382;8.480;2023-05-10T03:19:17;18.80;99.90
19007;DHT22;9636;47.382;8.480;2023-05-10T03:21:49;18.80;99.90
19007;DHT22;9636;47.382;8.480;2023-05-10T03:24:20;18.80;99.90
19007;DHT22;9636;47.382;8.480;2023-05-10T03:26:49;18.80;99.90
19007;DHT22;9636;47.382;8.480;2023-05-10T03:29:16;18.80;99.90
19007;DHT22;9636;47.382;8.480;2023-05-10T03:31:43;18.80;99.90
19007;DHT22;9636;47.382;8.480;2023-05-10T03:34:10;18.80;99.90
19007;DHT22;9636;47.382;8.480;2023-05-10T03:36:37;18.80;99.90
19007;DHT22;9636;47.382;8.480;2023-05-10T03:39:04;18.80;99.90
19007;DHT22;9636;47.382;8.480;2023-05-10T03:41:31;18.70;99.90
19007;DHT22;9636;47.382;8.480;2023-05-10T03:43:59;18.70;99.90
19007;DHT22;9636;47.382;8.480;2023-05-10T03:46:26;18.70;99.90
19007;DHT22;9636;47.382;8.480;2023-05-10T03:48:52;18.70;99.90
19007;DHT22;9636;47.382;8.480;2023-05-10T03:51:19;18.70;99.90
19007;DHT22;9636;47.382;8.480;2023-05-10T03:53:46;18.70;99.90
19007;DHT22;9636;47.382;8.480;2023-05-10T03:56:13;18.70;99.90
19007;DHT22;9636;47.382;8.480;2023-05-10T03:58:40;18.70;99.90
19007;DHT22;9636;47.382;8.480;2023-05-10T04:01:08;18.70;99.90
19007;DHT22;9636;47.382;8.480;2023-05-10T04:03:35;18.60;99.90
19007;DHT22;9636;47.382;8.480;2023-05-10T04:06:02;18.60;99.90
19007;DHT22;9636;47.382;8.480;2023-05-10T04:08:29;18.60;99.90
19007;DHT22;9636;47.382;8.480;2023-05-10T04:11:04;18.60;99.90
19007;DHT22;9636;47.382;8.480;2023-05-10T04:13:32;18.60;99.90
19007;DHT22;9636;47.382;8.480;2023-05-10T04:15:58;18.60;99.90
19007;DHT22;9636;47.382;8.480;2023-05-10T04:18:27;18.60;99.90
19007;DHT22;9636;47.382;8.480;2023-05-10T04:20:53;18.60;99.90
19007;DHT22;9636;47.382;8.480;2023-05-10T04:23:20;18.60;99.90
19007;DHT22;9636;47.382;8.480;2023-05-10T04:25:47;18.60;99.90
19007;DHT22;9636;47.382;8.480;2023-05-10T04:28:14;18.50;99.90
19007;DHT22;9636;47.382;8.480;2023-05-10T04:30:40;18.60;99.90
19007;DHT22;9636;47.382;8.480;2023-05-10T04:33:07;18.60;99.90
19007;DHT22;9636;47.382;8.480;2023-05-10T04:35:36;18.50;99.90
19007;DHT22;9636;47.382;8.480;2023-05-10T04:38:02;18.50;99.90
19007;DHT22;9636;47.382;8.480;2023-05-10T04:40:29;18.50;99.90
19007;DHT22;9636;47.382;8.480;2023-05-10T04:42:56;18.50;99.90
19007;DHT22;9636;47.382;8.480;2023-05-10T04:45:23;18.50;99.90
19007;DHT22;9636;47.382;8.480;2023-05-10T04:47:50;18.50;99.90
19007;DHT22;9636;47.382;8.480;2023-05-10T04:50:17;18.50;99.90
19007;DHT22;9636;47.382;8.480;2023-05-10T04:52:45;18.50;99.90
19007;DHT22;9636;47.382;8.480;2023-05-10T04:55:11;18.50;99.90
19007;DHT22;9636;47.382;8.480;2023-05-10T04:57:39;18.40;99.90
19007;DHT22;9636;47.382;8.480;2023-05-10T05:00:07;18.50;99.90
19007;DHT22;9636;47.382;8.480;2023-05-10T05:02:34;18.50;99.90
19007;DHT22;9636;47.382;8.480;2023-05-10T05:05:01;18.50;99.90
19007;DHT22;9636;47.382;8.480;2023-05-10T05:07:28;18.40;99.90
19007;DHT22;9636;47.382;8.480;2023-05-10T05:09:57;18.50;99.90
19007;DHT22;9636;47.382;8.480;2023-05-10T05:12:24;18.40;99.90
19007;DHT22;9636;47.382;8.480;2023-05-10T05:14:51;18.40;99.90
19007;DHT22;9636;47.382;8.480;2023-05-10T05:17:17;18.40;99.90
19007;DHT22;9636;47.382;8.480;2023-05-10T05:19:44;18.50;99.90
19007;DHT22;9636;47.382;8.480;2023-05-10T05:22:11;18.40;99.90
19007;DHT22;9636;47.382;8.480;2023-05-10T05:24:38;18.40;99.90
19007;DHT22;9636;47.382;8.480;2023-05-10T05:27:06;18.40;99.90
19007;DHT22;9636;47.382;8.480;2023-05-10T05:29:33;18.40;99.90
19007;DHT22;9636;47.382;8.480;2023-05-10T05:32:00;18.40;99.90
19007;DHT22;9636;47.382;8.480;2023-05-10T05:34:26;18.40;99.90
19007;DHT22;9636;47.382;8.480;2023-05-10T05:36:53;18.40;99.90
19007;DHT22;9636;47.382;8.480;2023-05-10T05:39:20;18.40;99.90
19007;DHT22;9636;47.382;8.480;2023-05-10T05:41:47;18.40;99.90
19007;DHT22;9636;47.382;8.480;2023-05-10T05:44:15;18.50;99.90
19007;DHT22;9636;47.382;8.480;2023-05-10T05:46:42;18.50;99.90
19007;DHT22;9636;47.382;8.480;2023-05-10T05:49:09;18.50;99.90
19007;DHT22;9636;47.382;8.480;2023-05-10T05:51:36;18.50;99.90
19007;DHT22;9636;47.382;8.480;2023-05-10T05:54:03;18.50;99.90
19007;DHT22;9636;47.382;8.480;2023-05-10T05:56:30;18.50;99.90
19007;DHT22;9636;47.382;8.480;2023-05-10T05:58:56;18.60;99.90
19007;DHT22;9636;47.382;8.480;2023-05-10T06:01:25;18.70;99.90
19007;DHT22;9636;47.382;8.480;2023-05-10T06:03:51;18.70;99.90
19007;DHT22;9636;47.382;8.480;2023-05-10T06:06:18;18.80;99.90
19007;DHT22;9636;47.382;8.480;2023-05-10T06:08:45;18.90;99.90
19007;DHT22;9636;47.382;8.480;2023-05-10T06:11:12;18.90;99.90
19007;DHT22;9636;47.382;8.480;2023-05-10T06:13:38;19.00;99.90
19007;DHT22;9636;47.382;8.480;2023-05-10T06:16:06;19.00;99.90
19007;DHT22;9636;47.382;8.480;2023-05-10T06:18:34;19.00;99.90
19007;DHT22;9636;47.382;8.480;2023-05-10T06:21:01;19.00;99.90
19007;DHT22;9636;47.382;8.480;2023-05-10T06:23:28;19.00;99.90
19007;DHT22;9636;47.382;8.480;2023-05-10T06:25:55;19.00;99.90
19007;DHT22;9636;47.382;8.480;2023-05-10T06:28:22;19.10;99.90
19007;DHT22;9636;47.382;8.480;2023-05-10T06:30:48;19.00;99.90
19007;DHT22;9636;47.382;8.480;2023-05-10T06:33:15;19.10;99.90
19007;DHT22;9636;47.382;8.480;2023-05-10T06:35:43;19.10;99.90
19007;DHT22;9636;47.382;8.480;2023-05-10T06:38:10;19.20;99.90
19007;DHT22;9636;47.382;8.480;2023-05-10T06:40:40;19.20;99.90
19007;DHT22;9636;47.382;8.480;2023-05-10T06:43:07;19.20;99.90
19007;DHT22;9636;47.382;8.480;2023-05-10T06:45:34;19.30;99.90
19007;DHT22;9636;47.382;8.480;2023-05-10T06:48:00;19.40;99.90
19007;DHT22;9636;47.382;8.480;2023-05-10T06:50:28;19.40;99.90
19007;DHT22;9636;47.382;8.480;2023-05-10T06:52:56;19.40;99.90
19007;DHT22;9636;47.382;8.480;2023-05-10T06:55:22;19.40;99.90
19007;DHT22;9636;47.382;8.480;2023-05-10T06:57:49;19.40;99.90
19007;DHT22;9636;47.382;8.480;2023-05-10T07:00:17;19.40;99.90
19007;DHT22;9636;47.382;8.480;2023-05-10T07:02:44;19.40;99.90
19007;DHT22;9636;47.382;8.480;2023-05-10T07:05:11;19.40;99.90
19007;DHT22;9636;47.382;8.480;2023-05-10T07:07:38;19.40;99.90
19007;DHT22;9636;47.382;8.480;2023-05-10T07:10:07;19.40;99.90
19007;DHT22;9636;47.382;8.480;2023-05-10T07:12:34;19.50;99.90
19007;DHT22;9636;47.382;8.480;2023-05-10T07:15:01;19.50;99.90
19007;DHT22;9636;47.382;8.480;2023-05-10T07:17:28;19.50;99.90
19007;DHT22;9636;47.382;8.480;2023-05-10T07:19:55;19.60;99.90
19007;DHT22;9636;47.382;8.480;2023-05-10T07:22:22;19.60;99.90
19007;DHT22;9636;47.382;8.480;2023-05-10T07:24:48;19.60;99.90
19007;DHT22;9636;47.382;8.480;2023-05-10T07:27:16;19.60;99.90
19007;DHT22;9636;47.382;8.480;2023-05-10T07:29:43;19.70;99.90
19007;DHT22;9636;47.382;8.480;2023-05-10T07:32:10;19.70;99.90
19007;DHT22;9636;47.382;8.480;2023-05-10T07:34:37;19.60;99.90
19007;DHT22;9636;47.382;8.480;2023-05-10T07:37:04;19.60;99.90
19007;DHT22;9636;47.382;8.480;2023-05-10T07:39:31;19.60;99.90
19007;DHT22;9636;47.382;8.480;2023-05-10T07:41:58;19.60;99.90
19007;DHT22;9636;47.382;8.480;2023-05-10T07:44:26;19.70;99.90
19007;DHT22;9636;47.382;8.480;2023-05-10T07:46:53;19.70;99.90
19007;DHT22;9636;47.382;8.480;2023-05-10T07:49:21;19.70;99.90
19007;DHT22;9636;47.382;8.480;2023-05-10T07:51:49;19.70;99.90
19007;DHT22;9636;47.382;8.480;2023-05-10T07:54:16;19.70;99.90
19007;DHT22;9636;47.382;8.480;2023-05-10T07:56:43;19.80;99.90
19007;DHT22;9636;47.382;8.480;2023-05-10T07:59:15;19.80;99.90
19007;DHT22;9636;47.382;8.480;2023-05-10T08:01:44;19.80;99.90
19007;DHT22;9636;47.382;8.480;2023-05-10T08:04:10;19.90;99.90
19007;DHT22;9636;47.382;8.480;2023-05-10T08:06:38;19.90;99.90
19007;DHT22;9636;47.382;8.480;2023-05-10T08:09:04;19.90;99.90
19007;DHT22;9636;47.382;8.480;2023-05-10T08:11:31;20.00;99.90
19007;DHT22;9636;47.382;8.480;2023-05-10T08:13:58;20.00;99.90
19007;DHT22;9636;47.382;8.480;2023-05-10T08:16:25;20.10;99.90
19007;DHT22;9636;47.382;8.480;2023-05-10T08:18:53;20.10;99.90
19007;DHT22;9636;47.382;8.480;2023-05-10T08:21:20;20.20;99.90
19007;DHT22;9636;47.382;8.480;2023-05-10T08:23:47;20.20;99.90
19007;DHT22;9636;47.382;8.480;2023-05-10T08:26:14;20.30;99.90
19007;DHT22;9636;47.382;8.480;2023-05-10T08:28:41;20.30;99.90
19007;DHT22;9636;47.382;8.480;2023-05-10T08:31:08;20.40;99.90
19007;DHT22;9636;47.382;8.480;2023-05-10T08:33:34;20.40;99.90
19007;DHT22;9636;47.382;8.480;2023-05-10T08:36:03;20.50;99.90
19007;DHT22;9636;47.382;8.480;2023-05-10T08:38:29;20.50;99.90
19007;DHT22;9636;47.382;8.480;2023-05-10T08:40:56;20.60;99.90
19007;DHT22;9636;47.382;8.480;2023-05-10T08:43:26;20.70;99.90
19007;DHT22;9636;47.382;8.480;2023-05-10T08:45:55;20.80;99.90
19007;DHT22;9636;47.382;8.480;2023-05-10T08:48:23;20.80;99.90
19007;DHT22;9636;47.382;8.480;2023-05-10T08:50:53;21.00;99.90
19007;DHT22;9636;47.382;8.480;2023-05-10T08:53:24;21.00;99.90
19007;DHT22;9636;47.382;8.480;2023-05-10T08:55:52;21.10;99.90
19007;DHT22;9636;47.382;8.480;2023-05-10T08:58:19;21.20;99.90
19007;DHT22;9636;47.382;8.480;2023-05-10T09:00:48;21.20;99.90
19007;DHT22;9636;47.382;8.480;2023-05-10T09:03:15;21.20;99.90
19007;DHT22;9636;47.382;8.480;2023-05-10T09:05:42;21.20;99.90
19007;DHT22;9636;47.382;8.480;2023-05-10T09:08:10;21.20;99.90
19007;DHT22;9636;47.382;8.480;2023-05-10T09:10:40;21.20;99.90
19007;DHT22;9636;47.382;8.480;2023-05-10T09:13:09;21.30;99.90
19007;DHT22;9636;47.382;8.480;2023-05-10T09:15:36;21.30;99.90
19007;DHT22;9636;47.382;8.480;2023-05-10T09:18:03;21.30;99.90
19007;DHT22;9636;47.382;8.480;2023-05-10T09:20:30;21.40;99.90
19007;DHT22;9636;47.382;8.480;2023-05-10T09:22:57;21.40;99.90
19007;DHT22;9636;47.382;8.480;2023-05-10T09:25:24;21.40;99.90
19007;DHT22;9636;47.382;8.480;2023-05-10T09:27:52;21.50;99.90
19007;DHT22;9636;47.382;8.480;2023-05-10T09:30:24;21.50;99.90
19007;DHT22;9636;47.382;8.480;2023-05-10T09:32:52;21.50;99.90
19007;DHT22;9636;47.382;8.480;2023-05-10T09:35:20;21.50;99.90
19007;DHT22;9636;47.382;8.480;2023-05-10T09:37:49;21.50;99.90
19007;DHT22;9636;47.382;8.480;2023-05-10T09:40:18;21.50;99.90
19007;DHT22;9636;47.382;8.480;2023-05-10T09:42:53;21.50;99.90
19007;DHT22;9636;47.382;8.480;2023-05-10T09:45:21;21.60;99.90
19007;DHT22;9636;47.382;8.480;2023-05-10T09:47:48;21.60;99.90
19007;DHT22;9636;47.382;8.480;2023-05-10T09:50:15;21.60;99.90
19007;DHT22;9636;47.382;8.480;2023-05-10T09:52:49;21.60;99.90
19007;DHT22;9636;47.382;8.480;2023-05-10T09:55:18;21.70;99.90
19007;DHT22;9636;47.382;8.480;2023-05-10T09:57:46;21.70;99.90
19007;DHT22;9636;47.382;8.480;2023-05-10T10:00:19;21.80;99.90
19007;DHT22;9636;47.382;8.480;2023-05-10T10:02:47;21.80;99.90
19007;DHT22;9636;47.382;8.480;2023-05-10T10:05:14;21.70;99.90
19007;DHT22;9636;47.382;8.480;2023-05-10T10:07:41;21.80;99.90
19007;DHT22;9636;47.382;8.480;2023-05-10T10:10:09;21.90;99.90
19007;DHT22;9636;47.382;8.480;2023-05-10T10:12:40;22.00;99.90
19007;DHT22;9636;47.382;8.480;2023-05-10T10:15:08;22.10;99.90
19007;DHT22;9636;47.382;8.480;2023-05-10T10:17:37;22.20;99.90
19007;DHT22;9636;47.382;8.480;2023-05-10T10:20:06;22.20;99.90
19007;DHT22;9636;47.382;8.480;2023-05-10T10:22:34;22.10;99.90
19007;DHT22;9636;47.382;8.480;2023-05-10T10:25:01;22.20;99.90
19007;DHT22;9636;47.382;8.480;2023-05-10T10:27:36;22.30;99.90
19007;DHT22;9636;47.382;8.480;2023-05-10T10:30:13;22.30;99.90
19007;DHT22;9636;47.382;8.480;2023-05-10T10:32:59;22.30;99.90
19007;DHT22;9636;47.382;8.480;2023-05-10T10:35:29;22.40;99.90
19007;DHT22;9636;47.382;8.480;2023-05-10T10:37:57;22.60;99.90
19007;DHT22;9636;47.382;8.480;2023-05-10T10:40:25;22.70;99.90
19007;DHT22;9636;47.382;8.480;2023-05-10T10:42:52;22.90;99.90
19007;DHT22;9636;47.382;8.480;2023-05-10T10:45:20;23.10;99.90
19007;DHT22;9636;47.382;8.480;2023-05-10T10:47:53;23.30;99.80
19007;DHT22;9636;47.382;8.480;2023-05-10T10:50:20;23.60;99.60
19007;DHT22;9636;47.382;8.480;2023-05-10T10:52:47;23.70;99.50
19007;DHT22;9636;47.382;8.480;2023-05-10T10:55:17;23.80;99.40
19007;DHT22;9636;47.382;8.480;2023-05-10T10:57:46;23.80;99.40
19007;DHT22;9636;47.382;8.480;2023-05-10T11:00:22;23.70;99.50
19007;DHT22;9636;47.382;8.480;2023-05-10T11:02:52;23.60;99.70
19007;DHT22;9636;47.382;8.480;2023-05-10T11:05:43;23.60;99.80
19007;DHT22;9636;47.382;8.480;2023-05-10T11:08:13;23.50;99.90
19007;DHT22;9636;47.382;8.480;2023-05-10T11:13:38;23.30;99.90
19007;DHT22;9636;47.382;8.480;2023-05-10T11:16:16;23.20;99.90
19007;DHT22;9636;47.382;8.480;2023-05-10T11:18:58;23.10;99.90
19007;DHT22;9636;47.382;8.480;2023-05-10T11:21:27;23.10;99.90
19007;DHT22;9636;47.382;8.480;2023-05-10T11:23:54;23.10;99.90
19007;DHT22;9636;47.382;8.480;2023-05-10T11:26:23;23.10;99.90
19007;DHT22;9636;47.382;8.480;2023-05-10T11:28:52;23.10;99.90
19007;DHT22;9636;47.382;8.480;2023-05-10T11:31:21;23.20;99.90
19007;DHT22;9636;47.382;8.480;2023-05-10T11:33:50;23.30;99.90
19007;DHT22;9636;47.382;8.480;2023-05-10T11:36:19;23.50;99.90
19007;DHT22;9636;47.382;8.480;2023-05-10T11:38:47;23.60;99.90
19007;DHT22;9636;47.382;8.480;2023-05-10T11:41:16;23.70;99.80
19007;DHT22;9636;47.382;8.480;2023-05-10T11:43:46;23.70;99.80
19007;DHT22;9636;47.382;8.480;2023-05-10T11:46:14;23.60;99.90
19007;DHT22;9636;47.382;8.480;2023-05-10T11:48:42;23.50;99.90
19007;DHT22;9636;47.382;8.480;2023-05-10T11:51:10;23.50;99.90
19007;DHT22;9636;47.382;8.480;2023-05-10T11:53:39;23.40;99.90
19007;DHT22;9636;47.382;8.480;2023-05-10T11:56:07;23.40;99.90
19007;DHT22;9636;47.382;8.480;2023-05-10T11:58:35;23.40;99.90
19007;DHT22;9636;47.382;8.480;2023-05-10T12:01:02;23.40;99.90
19007;DHT22;9636;47.382;8.480;2023-05-10T12:03:30;23.50;99.90
19007;DHT22;9636;47.382;8.480;2023-05-10T12:05:58;23.50;99.90
19007;DHT22;9636;47.382;8.480;2023-05-10T12:08:26;23.60;99.90
19007;DHT22;9636;47.382;8.480;2023-05-10T12:11:05;23.80;99.90
19007;DHT22;9636;47.382;8.480;2023-05-10T12:13:32;24.00;99.50
19007;DHT22;9636;47.382;8.480;2023-05-10T12:15:59;24.20;99.20
19007;DHT22;9636;47.382;8.480;2023-05-10T12:18:26;24.20;99.10
19007;DHT22;9636;47.382;8.480;2023-05-10T12:20:53;24.20;99.10
19007;DHT22;9636;47.382;8.480;2023-05-10T12:23:20;24.20;99.30
19007;DHT22;9636;47.382;8.480;2023-05-10T12:25:47;24.10;99.50
19007;DHT22;9636;47.382;8.480;2023-05-10T12:28:19;24.00;99.60
19007;DHT22;9636;47.382;8.480;2023-05-10T12:30:46;23.90;99.70
19007;DHT22;9636;47.382;8.480;2023-05-10T12:33:13;24.00;99.70
19007;DHT22;9636;47.382;8.480;2023-05-10T12:35:46;24.10;99.50
19007;DHT22;9636;47.382;8.480;2023-05-10T12:38:25;24.20;99.50
19007;DHT22;9636;47.382;8.480;2023-05-10T12:40:54;24.40;99.20
19007;DHT22;9636;47.382;8.480;2023-05-10T12:43:22;24.50;98.90
19007;DHT22;9636;47.382;8.480;2023-05-10T12:45:49;24.60;98.80
19007;DHT22;9636;47.382;8.480;2023-05-10T12:48:16;24.70;98.60
19007;DHT22;9636;47.382;8.480;2023-05-10T12:50:43;24.70;98.60
19007;DHT22;9636;47.382;8.480;2023-05-10T12:53:09;24.70;98.70
19007;DHT22;9636;47.382;8.480;2023-05-10T12:55:36;24.70;98.80
19007;DHT22;9636;47.382;8.480;2023-05-10T12:58:03;24.70;98.80
19007;DHT22;9636;47.382;8.480;2023-05-10T13:00:31;24.80;98.70
19007;DHT22;9636;47.382;8.480;2023-05-10T13:02:58;24.90;98.90
19007;DHT22;9636;47.382;8.480;2023-05-10T13:05:25;24.90;98.40
19007;DHT22;9636;47.382;8.480;2023-05-10T13:07:51;24.90;98.50
19007;DHT22;9636;47.382;8.480;2023-05-10T13:10:18;24.90;98.70
19007;DHT22;9636;47.382;8.480;2023-05-10T13:12:45;24.80;98.70
19007;DHT22;9636;47.382;8.480;2023-05-10T13:15:12;24.80;98.90
19007;DHT22;9636;47.382;8.480;2023-05-10T13:17:40;24.70;99.00
19007;DHT22;9636;47.382;8.480;2023-05-10T13:20:08;24.60;99.10
19007;DHT22;9636;47.382;8.480;2023-05-10T13:22:35;24.60;99.10
19007;DHT22;9636;47.382;8.480;2023-05-10T13:25:02;24.70;99.00
19007;DHT22;9636;47.382;8.480;2023-05-10T13:27:29;24.80;98.90
19007;DHT22;9636;47.382;8.480;2023-05-10T13:29:56;24.80;98.90
19007;DHT22;9636;47.382;8.480;2023-05-10T13:32:24;24.80;98.90
19007;DHT22;9636;47.382;8.480;2023-05-10T13:34:53;24.80;98.90
19007;DHT22;9636;47.382;8.480;2023-05-10T13:37:19;24.80;98.80
19007;DHT22;9636;47.382;8.480;2023-05-10T13:39:46;24.80;99.00
19007;DHT22;9636;47.382;8.480;2023-05-10T13:42:13;24.80;99.10
19007;DHT22;9636;47.382;8.480;2023-05-10T13:44:40;24.70;99.20
19007;DHT22;9636;47.382;8.480;2023-05-10T13:47:07;24.70;99.30
19007;DHT22;9636;47.382;8.480;2023-05-10T13:49:34;24.60;99.40
19007;DHT22;9636;47.382;8.480;2023-05-10T13:52:02;24.60;99.60
19007;DHT22;9636;47.382;8.480;2023-05-10T13:54:32;24.50;99.70
19007;DHT22;9636;47.382;8.480;2023-05-10T13:56:59;24.40;99.80
19007;DHT22;9636;47.382;8.480;2023-05-10T13:59:26;24.40;99.90
19007;DHT22;9636;47.382;8.480;2023-05-10T14:01:53;24.40;99.90
19007;DHT22;9636;47.382;8.480;2023-05-10T14:04:19;24.40;99.90
19007;DHT22;9636;47.382;8.480;2023-05-10T14:06:46;24.30;99.90
19007;DHT22;9636;47.382;8.480;2023-05-10T14:09:14;24.30;99.90
19007;DHT22;9636;47.382;8.480;2023-05-10T14:11:42;24.40;99.90
19007;DHT22;9636;47.382;8.480;2023-05-10T14:14:10;24.50;99.80
19007;DHT22;9636;47.382;8.480;2023-05-10T14:16:38;24.60;99.60
19007;DHT22;9636;47.382;8.480;2023-05-10T14:19:05;24.60;99.50
19007;DHT22;9636;47.382;8.480;2023-05-10T14:21:31;24.60;99.50
19007;DHT22;9636;47.382;8.480;2023-05-10T14:23:58;24.70;99.50
19007;DHT22;9636;47.382;8.480;2023-05-10T14:26:26;24.70;99.40
19007;DHT22;9636;47.382;8.480;2023-05-10T14:28:53;24.80;99.40
19007;DHT22;9636;47.382;8.480;2023-05-10T14:31:20;24.80;99.30
19007;DHT22;9636;47.382;8.480;2023-05-10T14:33:49;24.80;99.30
19007;DHT22;9636;47.382;8.480;2023-05-10T14:36:17;24.90;99.30
19007;DHT22;9636;47.382;8.480;2023-05-10T14:38:44;24.80;99.30
19007;DHT22;9636;47.382;8.480;2023-05-10T14:41:10;24.80;99.40
19007;DHT22;9636;47.382;8.480;2023-05-10T14:43:41;24.80;99.50
19007;DHT22;9636;47.382;8.480;2023-05-10T14:49:01;24.80;99.60
19007;DHT22;9636;47.382;8.480;2023-05-10T14:51:35;24.80;99.70
19007;DHT22;9636;47.382;8.480;2023-05-10T14:54:03;24.70;99.90
19007;DHT22;9636;47.382;8.480;2023-05-10T14:56:30;24.70;99.80
19007;DHT22;9636;47.382;8.480;2023-05-10T14:58:58;24.70;99.90
19007;DHT22;9636;47.382;8.480;2023-05-10T15:01:25;24.70;99.90
19007;DHT22;9636;47.382;8.480;2023-05-10T15:03:52;24.70;99.90
19007;DHT22;9636;47.382;8.480;2023-05-10T15:06:23;24.70;99.90
19007;DHT22;9636;47.382;8.480;2023-05-10T15:08:50;24.70;99.90
19007;DHT22;9636;47.382;8.480;2023-05-10T15:11:23;24.60;99.90
19007;DHT22;9636;47.382;8.480;2023-05-10T15:13:50;24.60;99.90
19007;DHT22;9636;47.382;8.480;2023-05-10T15:16:19;24.50;99.90
19007;DHT22;9636;47.382;8.480;2023-05-10T15:18:46;24.40;99.90
19007;DHT22;9636;47.382;8.480;2023-05-10T15:21:13;24.40;99.90
19007;DHT22;9636;47.382;8.480;2023-05-10T15:23:39;24.30;99.90
19007;DHT22;9636;47.382;8.480;2023-05-10T15:26:06;24.30;99.90
19007;DHT22;9636;47.382;8.480;2023-05-10T15:28:33;24.20;99.90
19007;DHT22;9636;47.382;8.480;2023-05-10T15:31:00;24.20;99.90
19007;DHT22;9636;47.382;8.480;2023-05-10T15:33:28;24.20;99.90
19007;DHT22;9636;47.382;8.480;2023-05-10T15:35:55;24.10;99.90
19007;DHT22;9636;47.382;8.480;2023-05-10T15:38:22;24.10;99.90
19007;DHT22;9636;47.382;8.480;2023-05-10T15:40:48;24.10;99.90
19007;DHT22;9636;47.382;8.480;2023-05-10T15:43:15;24.10;99.90
19007;DHT22;9636;47.382;8.480;2023-05-10T15:45:42;24.10;99.90
19007;DHT22;9636;47.382;8.480;2023-05-10T15:48:09;24.10;99.90
19007;DHT22;9636;47.382;8.480;2023-05-10T15:50:37;24.00;99.90
19007;DHT22;9636;47.382;8.480;2023-05-10T15:53:05;24.00;99.90
19007;DHT22;9636;47.382;8.480;2023-05-10T15:55:32;23.90;99.90
19007;DHT22;9636;47.382;8.480;2023-05-10T15:57:59;23.90;99.90